sensor_id;sensor_type;location;lat;lon;timestamp;P1;durP1;ratioP1;P2;durP2;ratioP2
2674;SDS011;1347;42.122;24.746;2023-05-23T00:01:47;6.33;;;5.10;;
2674;SDS011;1347;42.122;24.746;2023-05-23T00:04:14;5.50;;;5.10;;
2674;SDS011;1347;42.122;24.746;2023-05-23T00:06:44;5.87;;;5.23;;
2674;SDS011;1347;42.122;24.746;2023-05-23T00:09:11;6.20;;;5.13;;
2674;SDS011;1347;42.122;24.746;2023-05-23T00:11:39;5.33;;;4.83;;
2674;SDS011;1347;42.122;24.746;2023-05-23T00:14:09;5.50;;;4.27;;
2674;SDS011;1347;42.122;24.746;2023-05-23T00:16:38;4.97;;;4.53;;
2674;SDS011;1347;42.122;24.746;2023-05-23T00:19:07;7.00;;;4.90;;
2674;SDS011;1347;42.122;24.746;2023-05-23T00:21:35;5.80;;;4.77;;
2674;SDS011;1347;42.122;24.746;2023-05-23T00:24:03;6.30;;;5.00;;
2674;SDS011;1347;42.122;24.746;2023-05-23T00:26:31;8.83;;;4.87;;
2674;SDS011;1347;42.122;24.746;2023-05-23T00:28:58;6.83;;;5.53;;
2674;SDS011;1347;42.122;24.746;2023-05-23T00:31:25;9.90;;;5.07;;
2674;SDS011;1347;42.122;24.746;2023-05-23T00:33:52;6.40;;;5.53;;
2674;SDS011;1347;42.122;24.746;2023-05-23T00:36:19;5.63;;;5.13;;
2674;SDS011;1347;42.122;24.746;2023-05-23T00:38:48;6.40;;;5.80;;
2674;SDS011;1347;42.122;24.746;2023-05-23T00:41:16;10.50;;;5.43;;
2674;SDS011;1347;42.122;24.746;2023-05-23T00:43:45;5.90;;;5.30;;
2674;SDS011;1347;42.122;24.746;2023-05-23T00:46:12;8.47;;;5.10;;
2674;SDS011;1347;42.122;24.746;2023-05-23T00:48:39;7.27;;;5.80;;
2674;SDS011;1347;42.122;24.746;2023-05-23T00:51:06;6.40;;;5.80;;
2674;SDS011;1347;42.122;24.746;2023-05-23T00:53:33;7.33;;;6.30;;
2674;SDS011;1347;42.122;24.746;2023-05-23T00:56:01;10.80;;;6.80;;
2674;SDS011;1347;42.122;24.746;2023-05-23T00:58:30;6.60;;;5.90;;
2674;SDS011;1347;42.122;24.746;2023-05-23T01:00:57;6.10;;;5.50;;
2674;SDS011;1347;42.122;24.746;2023-05-23T01:03:24;7.80;;;6.13;;
2674;SDS011;1347;42.122;24.746;2023-05-23T01:05:52;6.30;;;5.70;;
2674;SDS011;1347;42.122;24.746;2023-05-23T01:08:20;7.00;;;6.30;;
2674;SDS011;1347;42.122;24.746;2023-05-23T01:10:47;7.87;;;6.87;;
2674;SDS011;1347;42.122;24.746;2023-05-23T01:13:16;7.33;;;6.00;;
2674;SDS011;1347;42.122;24.746;2023-05-23T01:15:56;7.30;;;6.40;;
2674;SDS011;1347;42.122;24.746;2023-05-23T01:18:28;6.80;;;5.97;;
2674;SDS011;1347;42.122;24.746;2023-05-23T01:21:05;8.00;;;6.20;;
2674;SDS011;1347;42.122;24.746;2023-05-23T01:23:39;6.23;;;5.63;;
2674;SDS011;1347;42.122;24.746;2023-05-23T01:26:31;7.87;;;5.90;;
2674;SDS011;1347;42.122;24.746;2023-05-23T01:29:10;8.07;;;6.50;;
2674;SDS011;1347;42.122;24.746;2023-05-23T01:31:41;7.00;;;6.40;;
2674;SDS011;1347;42.122;24.746;2023-05-23T01:34:09;7.07;;;6.40;;
2674;SDS011;1347;42.122;24.746;2023-05-23T01:36:38;7.23;;;6.53;;
2674;SDS011;1347;42.122;24.746;2023-05-23T01:39:07;7.37;;;6.20;;
2674;SDS011;1347;42.122;24.746;2023-05-23T01:41:34;8.67;;;6.47;;
2674;SDS011;1347;42.122;24.746;2023-05-23T01:44:01;7.13;;;6.43;;
2674;SDS011;1347;42.122;24.746;2023-05-23T01:46:31;7.90;;;6.77;;
2674;SDS011;1347;42.122;24.746;2023-05-23T01:49:00;7.23;;;6.17;;
2674;SDS011;1347;42.122;24.746;2023-05-23T01:51:29;6.80;;;6.07;;
2674;SDS011;1347;42.122;24.746;2023-05-23T01:53:56;8.20;;;6.60;;
2674;SDS011;1347;42.122;24.746;2023-05-23T01:56:23;7.07;;;6.40;;
2674;SDS011;1347;42.122;24.746;2023-05-23T01:58:51;7.97;;;5.60;;
2674;SDS011;1347;42.122;24.746;2023-05-23T02:01:18;6.87;;;6.27;;
2674;SDS011;1347;42.122;24.746;2023-05-23T02:03:47;6.50;;;6.00;;
2674;SDS011;1347;42.122;24.746;2023-05-23T02:06:14;6.93;;;5.97;;
2674;SDS011;1347;42.122;24.746;2023-05-23T02:08:41;7.67;;;6.77;;
2674;SDS011;1347;42.122;24.746;2023-05-23T02:11:08;8.67;;;6.80;;
2674;SDS011;1347;42.122;24.746;2023-05-23T02:13:35;8.23;;;6.37;;
2674;SDS011;1347;42.122;24.746;2023-05-23T02:16:02;7.40;;;6.60;;
2674;SDS011;1347;42.122;24.746;2023-05-23T02:18:29;8.30;;;6.80;;
2674;SDS011;1347;42.122;24.746;2023-05-23T02:20:57;7.03;;;6.33;;
2674;SDS011;1347;42.122;24.746;2023-05-23T02:23:24;8.87;;;7.77;;
2674;SDS011;1347;42.122;24.746;2023-05-23T02:25:51;7.60;;;6.90;;
2674;SDS011;1347;42.122;24.746;2023-05-23T02:28:21;9.20;;;7.20;;
2674;SDS011;1347;42.122;24.746;2023-05-23T02:30:48;7.07;;;6.47;;
2674;SDS011;1347;42.122;24.746;2023-05-23T02:33:15;7.57;;;6.63;;
2674;SDS011;1347;42.122;24.746;2023-05-23T02:35:42;7.90;;;6.50;;
2674;SDS011;1347;42.122;24.746;2023-05-23T02:38:10;8.47;;;7.57;;
2674;SDS011;1347;42.122;24.746;2023-05-23T02:40:37;7.90;;;7.10;;
2674;SDS011;1347;42.122;24.746;2023-05-23T02:43:04;7.60;;;6.83;;
2674;SDS011;1347;42.122;24.746;2023-05-23T02:45:31;8.43;;;7.67;;
2674;SDS011;1347;42.122;24.746;2023-05-23T02:47:57;7.57;;;6.77;;
2674;SDS011;1347;42.122;24.746;2023-05-23T02:50:24;12.00;;;7.00;;
2674;SDS011;1347;42.122;24.746;2023-05-23T02:52:51;9.50;;;8.43;;
2674;SDS011;1347;42.122;24.746;2023-05-23T02:55:19;9.10;;;8.20;;
2674;SDS011;1347;42.122;24.746;2023-05-23T02:57:46;10.73;;;6.97;;
2674;SDS011;1347;42.122;24.746;2023-05-23T03:00:13;8.30;;;7.43;;
2674;SDS011;1347;42.122;24.746;2023-05-23T03:02:41;8.30;;;7.37;;
2674;SDS011;1347;42.122;24.746;2023-05-23T03:05:08;10.63;;;7.50;;
2674;SDS011;1347;42.122;24.746;2023-05-23T03:07:35;10.10;;;7.10;;
2674;SDS011;1347;42.122;24.746;2023-05-23T03:10:02;19.53;;;8.90;;
2674;SDS011;1347;42.122;24.746;2023-05-23T03:12:30;8.27;;;7.20;;
2674;SDS011;1347;42.122;24.746;2023-05-23T03:14:57;9.90;;;8.93;;
2674;SDS011;1347;42.122;24.746;2023-05-23T03:17:24;11.60;;;8.30;;
2674;SDS011;1347;42.122;24.746;2023-05-23T03:19:51;10.53;;;7.47;;
2674;SDS011;1347;42.122;24.746;2023-05-23T03:22:18;8.40;;;6.90;;
2674;SDS011;1347;42.122;24.746;2023-05-23T03:24:45;7.70;;;6.43;;
2674;SDS011;1347;42.122;24.746;2023-05-23T03:27:12;7.10;;;5.90;;
2674;SDS011;1347;42.122;24.746;2023-05-23T03:29:40;6.47;;;5.87;;
2674;SDS011;1347;42.122;24.746;2023-05-23T03:32:07;7.10;;;5.57;;
2674;SDS011;1347;42.122;24.746;2023-05-23T03:34:34;6.67;;;5.63;;
2674;SDS011;1347;42.122;24.746;2023-05-23T03:37:02;9.50;;;6.13;;
2674;SDS011;1347;42.122;24.746;2023-05-23T03:39:29;6.50;;;5.90;;
2674;SDS011;1347;42.122;24.746;2023-05-23T03:41:56;9.07;;;6.57;;
2674;SDS011;1347;42.122;24.746;2023-05-23T03:44:23;12.87;;;6.80;;
2674;SDS011;1347;42.122;24.746;2023-05-23T03:46:51;7.57;;;5.60;;
2674;SDS011;1347;42.122;24.746;2023-05-23T03:49:18;9.37;;;6.07;;
2674;SDS011;1347;42.122;24.746;2023-05-23T03:51:45;8.90;;;5.63;;
2674;SDS011;1347;42.122;24.746;2023-05-23T03:54:12;7.87;;;6.70;;
2674;SDS011;1347;42.122;24.746;2023-05-23T03:56:41;6.80;;;5.83;;
2674;SDS011;1347;42.122;24.746;2023-05-23T03:59:08;6.77;;;6.03;;
2674;SDS011;1347;42.122;24.746;2023-05-23T04:01:35;8.87;;;6.63;;
2674;SDS011;1347;42.122;24.746;2023-05-23T04:04:05;6.10;;;5.50;;
2674;SDS011;1347;42.122;24.746;2023-05-23T04:06:32;6.67;;;5.40;;
2674;SDS011;1347;42.122;24.746;2023-05-23T04:08:58;7.83;;;6.90;;
2674;SDS011;1347;42.122;24.746;2023-05-23T04:11:26;7.63;;;6.87;;
2674;SDS011;1347;42.122;24.746;2023-05-23T04:13:54;9.53;;;5.43;;
2674;SDS011;1347;42.122;24.746;2023-05-23T04:16:21;8.40;;;6.00;;
2674;SDS011;1347;42.122;24.746;2023-05-23T04:18:49;7.00;;;5.77;;
2674;SDS011;1347;42.122;24.746;2023-05-23T04:21:18;9.93;;;5.67;;
2674;SDS011;1347;42.122;24.746;2023-05-23T04:23:45;6.20;;;5.60;;
2674;SDS011;1347;42.122;24.746;2023-05-23T04:26:12;7.77;;;5.80;;
2674;SDS011;1347;42.122;24.746;2023-05-23T04:28:39;9.00;;;5.80;;
2674;SDS011;1347;42.122;24.746;2023-05-23T04:31:08;5.93;;;5.33;;
2674;SDS011;1347;42.122;24.746;2023-05-23T04:33:36;10.50;;;6.20;;
2674;SDS011;1347;42.122;24.746;2023-05-23T04:36:03;8.90;;;6.37;;
2674;SDS011;1347;42.122;24.746;2023-05-23T04:38:34;8.50;;;6.60;;
2674;SDS011;1347;42.122;24.746;2023-05-23T04:41:02;7.17;;;6.43;;
2674;SDS011;1347;42.122;24.746;2023-05-23T04:43:30;9.83;;;6.43;;
2674;SDS011;1347;42.122;24.746;2023-05-23T04:45:57;11.90;;;7.03;;
2674;SDS011;1347;42.122;24.746;2023-05-23T04:48:26;7.73;;;6.87;;
2674;SDS011;1347;42.122;24.746;2023-05-23T04:50:53;13.20;;;7.97;;
2674;SDS011;1347;42.122;24.746;2023-05-23T04:53:20;9.00;;;7.40;;
2674;SDS011;1347;42.122;24.746;2023-05-23T04:55:48;11.03;;;6.50;;
2674;SDS011;1347;42.122;24.746;2023-05-23T04:58:15;14.60;;;7.63;;
2674;SDS011;1347;42.122;24.746;2023-05-23T05:00:42;8.70;;;7.00;;
2674;SDS011;1347;42.122;24.746;2023-05-23T05:03:09;7.50;;;6.80;;
2674;SDS011;1347;42.122;24.746;2023-05-23T05:05:36;8.30;;;5.60;;
2674;SDS011;1347;42.122;24.746;2023-05-23T05:08:02;7.80;;;5.47;;
2674;SDS011;1347;42.122;24.746;2023-05-23T05:10:30;6.70;;;6.10;;
2674;SDS011;1347;42.122;24.746;2023-05-23T05:12:58;6.30;;;5.50;;
2674;SDS011;1347;42.122;24.746;2023-05-23T05:15:25;8.47;;;5.60;;
2674;SDS011;1347;42.122;24.746;2023-05-23T05:17:52;7.97;;;6.10;;
2674;SDS011;1347;42.122;24.746;2023-05-23T05:20:19;11.47;;;5.47;;
2674;SDS011;1347;42.122;24.746;2023-05-23T05:22:46;11.93;;;6.83;;
2674;SDS011;1347;42.122;24.746;2023-05-23T05:25:20;9.00;;;6.17;;
2674;SDS011;1347;42.122;24.746;2023-05-23T05:27:47;12.50;;;6.93;;
2674;SDS011;1347;42.122;24.746;2023-05-23T05:30:15;9.30;;;5.53;;
2674;SDS011;1347;42.122;24.746;2023-05-23T05:32:42;10.13;;;5.60;;
2674;SDS011;1347;42.122;24.746;2023-05-23T05:35:10;12.80;;;5.90;;
2674;SDS011;1347;42.122;24.746;2023-05-23T05:37:38;7.73;;;5.90;;
2674;SDS011;1347;42.122;24.746;2023-05-23T05:40:05;13.10;;;6.50;;
2674;SDS011;1347;42.122;24.746;2023-05-23T05:42:32;10.00;;;6.83;;
2674;SDS011;1347;42.122;24.746;2023-05-23T05:44:59;9.13;;;6.73;;
2674;SDS011;1347;42.122;24.746;2023-05-23T05:47:28;9.17;;;7.87;;
2674;SDS011;1347;42.122;24.746;2023-05-23T05:49:55;9.43;;;6.50;;
2674;SDS011;1347;42.122;24.746;2023-05-23T05:52:21;10.63;;;7.13;;
2674;SDS011;1347;42.122;24.746;2023-05-23T05:54:48;9.10;;;6.10;;
2674;SDS011;1347;42.122;24.746;2023-05-23T05:57:15;8.03;;;7.00;;
2674;SDS011;1347;42.122;24.746;2023-05-23T05:59:42;15.97;;;7.07;;
2674;SDS011;1347;42.122;24.746;2023-05-23T06:02:09;8.80;;;6.20;;
2674;SDS011;1347;42.122;24.746;2023-05-23T06:04:37;10.83;;;6.20;;
2674;SDS011;1347;42.122;24.746;2023-05-23T06:07:04;7.93;;;6.23;;
2674;SDS011;1347;42.122;24.746;2023-05-23T06:09:31;7.30;;;6.67;;
2674;SDS011;1347;42.122;24.746;2023-05-23T06:11:58;11.03;;;6.80;;
2674;SDS011;1347;42.122;24.746;2023-05-23T06:14:25;14.30;;;6.97;;
2674;SDS011;1347;42.122;24.746;2023-05-23T06:16:52;12.70;;;6.70;;
2674;SDS011;1347;42.122;24.746;2023-05-23T06:19:19;9.60;;;6.20;;
2674;SDS011;1347;42.122;24.746;2023-05-23T06:21:47;10.03;;;7.50;;
2674;SDS011;1347;42.122;24.746;2023-05-23T06:24:14;8.17;;;6.17;;
2674;SDS011;1347;42.122;24.746;2023-05-23T06:26:41;12.73;;;6.57;;
2674;SDS011;1347;42.122;24.746;2023-05-23T06:29:08;8.63;;;6.13;;
2674;SDS011;1347;42.122;24.746;2023-05-23T06:31:35;6.80;;;5.63;;
2674;SDS011;1347;42.122;24.746;2023-05-23T06:34:01;7.17;;;5.73;;
2674;SDS011;1347;42.122;24.746;2023-05-23T06:36:28;6.60;;;5.90;;
2674;SDS011;1347;42.122;24.746;2023-05-23T06:38:57;6.90;;;5.80;;
2674;SDS011;1347;42.122;24.746;2023-05-23T06:41:24;10.37;;;6.60;;
2674;SDS011;1347;42.122;24.746;2023-05-23T06:43:51;11.40;;;5.60;;
2674;SDS011;1347;42.122;24.746;2023-05-23T06:46:18;6.50;;;5.30;;
2674;SDS011;1347;42.122;24.746;2023-05-23T06:48:45;6.20;;;5.53;;
2674;SDS011;1347;42.122;24.746;2023-05-23T06:51:12;5.90;;;5.40;;
2674;SDS011;1347;42.122;24.746;2023-05-23T06:53:39;6.80;;;6.10;;
2674;SDS011;1347;42.122;24.746;2023-05-23T06:56:07;10.73;;;5.87;;
2674;SDS011;1347;42.122;24.746;2023-05-23T06:58:34;7.83;;;6.03;;
2674;SDS011;1347;42.122;24.746;2023-05-23T07:01:01;10.70;;;6.10;;
2674;SDS011;1347;42.122;24.746;2023-05-23T07:03:28;6.27;;;5.67;;
2674;SDS011;1347;42.122;24.746;2023-05-23T07:05:55;8.03;;;5.50;;
2674;SDS011;1347;42.122;24.746;2023-05-23T07:08:22;9.03;;;5.60;;
2674;SDS011;1347;42.122;24.746;2023-05-23T07:10:49;6.50;;;5.77;;
2674;SDS011;1347;42.122;24.746;2023-05-23T07:13:17;11.57;;;5.93;;
2674;SDS011;1347;42.122;24.746;2023-05-23T07:15:44;8.07;;;6.13;;
2674;SDS011;1347;42.122;24.746;2023-05-23T07:18:11;11.80;;;7.00;;
2674;SDS011;1347;42.122;24.746;2023-05-23T07:20:38;11.40;;;7.03;;
2674;SDS011;1347;42.122;24.746;2023-05-23T07:23:05;11.00;;;5.93;;
2674;SDS011;1347;42.122;24.746;2023-05-23T07:25:32;11.63;;;5.70;;
2674;SDS011;1347;42.122;24.746;2023-05-23T07:27:59;8.37;;;6.00;;
2674;SDS011;1347;42.122;24.746;2023-05-23T07:30:27;8.07;;;6.00;;
2674;SDS011;1347;42.122;24.746;2023-05-23T07:32:54;12.00;;;6.40;;
2674;SDS011;1347;42.122;24.746;2023-05-23T07:35:21;9.93;;;5.97;;
2674;SDS011;1347;42.122;24.746;2023-05-23T07:37:50;5.87;;;5.37;;
2674;SDS011;1347;42.122;24.746;2023-05-23T07:40:17;7.70;;;6.60;;
2674;SDS011;1347;42.122;24.746;2023-05-23T07:42:44;6.03;;;5.47;;
2674;SDS011;1347;42.122;24.746;2023-05-23T07:45:11;6.90;;;6.13;;
2674;SDS011;1347;42.122;24.746;2023-05-23T07:47:40;8.07;;;6.47;;
2674;SDS011;1347;42.122;24.746;2023-05-23T07:50:07;12.27;;;7.57;;
2674;SDS011;1347;42.122;24.746;2023-05-23T07:52:35;9.37;;;6.43;;
2674;SDS011;1347;42.122;24.746;2023-05-23T07:55:02;5.93;;;5.43;;
2674;SDS011;1347;42.122;24.746;2023-05-23T07:57:29;11.30;;;5.67;;
2674;SDS011;1347;42.122;24.746;2023-05-23T07:59:55;7.93;;;6.63;;
2674;SDS011;1347;42.122;24.746;2023-05-23T08:02:22;7.97;;;6.40;;
2674;SDS011;1347;42.122;24.746;2023-05-23T08:04:51;9.80;;;6.23;;
2674;SDS011;1347;42.122;24.746;2023-05-23T08:07:18;5.97;;;5.47;;
2674;SDS011;1347;42.122;24.746;2023-05-23T08:09:45;8.93;;;5.93;;
2674;SDS011;1347;42.122;24.746;2023-05-23T08:12:12;7.17;;;6.47;;
2674;SDS011;1347;42.122;24.746;2023-05-23T08:14:39;6.37;;;5.77;;
2674;SDS011;1347;42.122;24.746;2023-05-23T08:17:06;6.40;;;5.43;;
2674;SDS011;1347;42.122;24.746;2023-05-23T08:19:33;11.33;;;6.33;;
2674;SDS011;1347;42.122;24.746;2023-05-23T08:22:02;7.30;;;6.53;;
2674;SDS011;1347;42.122;24.746;2023-05-23T08:24:29;6.43;;;5.90;;
2674;SDS011;1347;42.122;24.746;2023-05-23T08:26:58;6.83;;;6.27;;
2674;SDS011;1347;42.122;24.746;2023-05-23T08:29:25;6.67;;;5.90;;
2674;SDS011;1347;42.122;24.746;2023-05-23T08:31:52;6.53;;;6.03;;
2674;SDS011;1347;42.122;24.746;2023-05-23T08:34:19;6.87;;;6.23;;
2674;SDS011;1347;42.122;24.746;2023-05-23T08:36:46;10.27;;;5.80;;
2674;SDS011;1347;42.122;24.746;2023-05-23T08:39:14;7.40;;;6.70;;
2674;SDS011;1347;42.122;24.746;2023-05-23T08:41:41;10.37;;;6.90;;
2674;SDS011;1347;42.122;24.746;2023-05-23T08:44:08;8.57;;;6.57;;
2674;SDS011;1347;42.122;24.746;2023-05-23T08:46:37;8.83;;;6.50;;
2674;SDS011;1347;42.122;24.746;2023-05-23T08:49:09;7.30;;;5.77;;
2674;SDS011;1347;42.122;24.746;2023-05-23T08:51:41;11.33;;;6.43;;
2674;SDS011;1347;42.122;24.746;2023-05-23T08:54:09;7.53;;;6.33;;
2674;SDS011;1347;42.122;24.746;2023-05-23T08:56:40;7.30;;;5.80;;
2674;SDS011;1347;42.122;24.746;2023-05-23T08:59:09;5.63;;;5.13;;
2674;SDS011;1347;42.122;24.746;2023-05-23T09:01:37;6.77;;;6.17;;
2674;SDS011;1347;42.122;24.746;2023-05-23T09:04:05;6.03;;;5.43;;
2674;SDS011;1347;42.122;24.746;2023-05-23T09:06:33;6.53;;;5.90;;
2674;SDS011;1347;42.122;24.746;2023-05-23T09:09:00;6.70;;;5.80;;
2674;SDS011;1347;42.122;24.746;2023-05-23T09:11:28;6.23;;;5.73;;
2674;SDS011;1347;42.122;24.746;2023-05-23T09:13:59;8.97;;;6.80;;
2674;SDS011;1347;42.122;24.746;2023-05-23T09:16:30;8.80;;;6.47;;
2674;SDS011;1347;42.122;24.746;2023-05-23T09:18:59;7.83;;;6.50;;
2674;SDS011;1347;42.122;24.746;2023-05-23T09:21:36;7.33;;;6.00;;
2674;SDS011;1347;42.122;24.746;2023-05-23T09:24:04;8.27;;;5.33;;
2674;SDS011;1347;42.122;24.746;2023-05-23T09:26:33;5.93;;;5.43;;
2674;SDS011;1347;42.122;24.746;2023-05-23T09:29:03;6.70;;;6.00;;
2674;SDS011;1347;42.122;24.746;2023-05-23T09:31:31;6.00;;;5.43;;
2674;SDS011;1347;42.122;24.746;2023-05-23T09:33:58;6.90;;;5.93;;
2674;SDS011;1347;42.122;24.746;2023-05-23T09:36:26;6.30;;;5.30;;
2674;SDS011;1347;42.122;24.746;2023-05-23T09:38:54;9.40;;;5.27;;
2674;SDS011;1347;42.122;24.746;2023-05-23T09:41:22;7.50;;;5.90;;
2674;SDS011;1347;42.122;24.746;2023-05-23T09:43:50;6.50;;;5.87;;
2674;SDS011;1347;42.122;24.746;2023-05-23T09:46:20;12.10;;;6.67;;
2674;SDS011;1347;42.122;24.746;2023-05-23T09:48:48;9.40;;;6.07;;
2674;SDS011;1347;42.122;24.746;2023-05-23T09:51:17;8.97;;;6.33;;
2674;SDS011;1347;42.122;24.746;2023-05-23T09:53:46;7.03;;;6.43;;
2674;SDS011;1347;42.122;24.746;2023-05-23T09:56:14;14.50;;;6.80;;
2674;SDS011;1347;42.122;24.746;2023-05-23T09:58:42;6.47;;;5.87;;
2674;SDS011;1347;42.122;24.746;2023-05-23T10:01:14;7.20;;;6.60;;
2674;SDS011;1347;42.122;24.746;2023-05-23T10:03:47;7.53;;;6.77;;
2674;SDS011;1347;42.122;24.746;2023-05-23T10:06:16;9.43;;;6.90;;
2674;SDS011;1347;42.122;24.746;2023-05-23T10:08:49;8.03;;;7.10;;
2674;SDS011;1347;42.122;24.746;2023-05-23T10:14:21;6.33;;;5.77;;
2674;SDS011;1347;42.122;24.746;2023-05-23T10:16:54;7.40;;;6.07;;
2674;SDS011;1347;42.122;24.746;2023-05-23T10:19:30;12.40;;;5.60;;
2674;SDS011;1347;42.122;24.746;2023-05-23T10:22:02;6.53;;;5.70;;
2674;SDS011;1347;42.122;24.746;2023-05-23T10:24:32;11.43;;;5.90;;
2674;SDS011;1347;42.122;24.746;2023-05-23T10:27:01;9.70;;;6.13;;
2674;SDS011;1347;42.122;24.746;2023-05-23T10:29:28;7.00;;;5.53;;
2674;SDS011;1347;42.122;24.746;2023-05-23T10:31:57;8.00;;;6.40;;
2674;SDS011;1347;42.122;24.746;2023-05-23T10:34:27;5.53;;;4.90;;
2674;SDS011;1347;42.122;24.746;2023-05-23T10:37:01;6.40;;;5.47;;
2674;SDS011;1347;42.122;24.746;2023-05-23T10:39:34;7.17;;;6.27;;
2674;SDS011;1347;42.122;24.746;2023-05-23T10:42:10;6.80;;;6.17;;
2674;SDS011;1347;42.122;24.746;2023-05-23T10:44:40;8.67;;;5.37;;
2674;SDS011;1347;42.122;24.746;2023-05-23T10:47:07;7.57;;;6.77;;
2674;SDS011;1347;42.122;24.746;2023-05-23T10:49:38;7.97;;;5.67;;
2674;SDS011;1347;42.122;24.746;2023-05-23T10:52:09;7.87;;;5.43;;
2674;SDS011;1347;42.122;24.746;2023-05-23T10:54:41;7.37;;;5.50;;
2674;SDS011;1347;42.122;24.746;2023-05-23T10:57:15;8.30;;;6.47;;
2674;SDS011;1347;42.122;24.746;2023-05-23T10:59:44;9.10;;;6.20;;
2674;SDS011;1347;42.122;24.746;2023-05-23T11:02:13;10.83;;;6.20;;
2674;SDS011;1347;42.122;24.746;2023-05-23T11:04:42;8.30;;;6.73;;
2674;SDS011;1347;42.122;24.746;2023-05-23T11:07:28;6.70;;;6.10;;
2674;SDS011;1347;42.122;24.746;2023-05-23T11:10:02;8.00;;;6.73;;
2674;SDS011;1347;42.122;24.746;2023-05-23T11:12:36;6.63;;;5.87;;
2674;SDS011;1347;42.122;24.746;2023-05-23T11:15:20;7.57;;;6.80;;
2674;SDS011;1347;42.122;24.746;2023-05-23T11:17:49;7.57;;;6.87;;
2674;SDS011;1347;42.122;24.746;2023-05-23T11:20:19;8.60;;;6.07;;
2674;SDS011;1347;42.122;24.746;2023-05-23T11:22:58;8.03;;;6.50;;
2674;SDS011;1347;42.122;24.746;2023-05-23T11:25:39;8.60;;;6.40;;
2674;SDS011;1347;42.122;24.746;2023-05-23T11:28:10;8.03;;;6.73;;
2674;SDS011;1347;42.122;24.746;2023-05-23T11:30:38;6.93;;;6.33;;
2674;SDS011;1347;42.122;24.746;2023-05-23T11:33:06;7.83;;;7.23;;
2674;SDS011;1347;42.122;24.746;2023-05-23T11:35:37;7.33;;;6.60;;
2674;SDS011;1347;42.122;24.746;2023-05-23T11:38:05;7.97;;;7.00;;
2674;SDS011;1347;42.122;24.746;2023-05-23T11:40:33;8.70;;;6.57;;
2674;SDS011;1347;42.122;24.746;2023-05-23T11:43:02;9.10;;;7.87;;
2674;SDS011;1347;42.122;24.746;2023-05-23T11:45:30;9.30;;;6.70;;
2674;SDS011;1347;42.122;24.746;2023-05-23T11:47:57;8.40;;;6.80;;
2674;SDS011;1347;42.122;24.746;2023-05-23T11:50:24;7.63;;;6.73;;
2674;SDS011;1347;42.122;24.746;2023-05-23T11:52:54;7.00;;;6.40;;
2674;SDS011;1347;42.122;24.746;2023-05-23T11:55:21;9.30;;;6.63;;
2674;SDS011;1347;42.122;24.746;2023-05-23T11:57:49;11.70;;;5.67;;
2674;SDS011;1347;42.122;24.746;2023-05-23T12:00:17;10.43;;;4.93;;
2674;SDS011;1347;42.122;24.746;2023-05-23T12:02:45;6.90;;;4.47;;
2674;SDS011;1347;42.122;24.746;2023-05-23T12:05:13;9.30;;;4.80;;
2674;SDS011;1347;42.122;24.746;2023-05-23T12:07:40;12.87;;;4.80;;
2674;SDS011;1347;42.122;24.746;2023-05-23T12:10:09;6.93;;;5.03;;
2674;SDS011;1347;42.122;24.746;2023-05-23T12:12:39;7.40;;;4.70;;
2674;SDS011;1347;42.122;24.746;2023-05-23T12:15:07;5.87;;;4.93;;
2674;SDS011;1347;42.122;24.746;2023-05-23T12:17:35;8.60;;;4.90;;
2674;SDS011;1347;42.122;24.746;2023-05-23T12:20:04;9.47;;;5.00;;
2674;SDS011;1347;42.122;24.746;2023-05-23T12:22:32;7.27;;;3.90;;
2674;SDS011;1347;42.122;24.746;2023-05-23T12:24:59;5.07;;;4.57;;
2674;SDS011;1347;42.122;24.746;2023-05-23T12:27:27;8.03;;;4.70;;
2674;SDS011;1347;42.122;24.746;2023-05-23T12:30:05;6.27;;;4.93;;
2674;SDS011;1347;42.122;24.746;2023-05-23T12:32:33;4.30;;;3.87;;
2674;SDS011;1347;42.122;24.746;2023-05-23T12:35:02;6.43;;;5.17;;
2674;SDS011;1347;42.122;24.746;2023-05-23T12:37:29;5.30;;;4.80;;
2674;SDS011;1347;42.122;24.746;2023-05-23T12:39:56;5.43;;;4.90;;
2674;SDS011;1347;42.122;24.746;2023-05-23T12:42:23;11.97;;;5.10;;
2674;SDS011;1347;42.122;24.746;2023-05-23T12:44:52;6.43;;;5.20;;
2674;SDS011;1347;42.122;24.746;2023-05-23T12:47:19;9.13;;;4.93;;
2674;SDS011;1347;42.122;24.746;2023-05-23T12:49:46;6.73;;;5.20;;
2674;SDS011;1347;42.122;24.746;2023-05-23T12:52:13;7.10;;;5.03;;
2674;SDS011;1347;42.122;24.746;2023-05-23T12:54:41;8.17;;;4.63;;
2674;SDS011;1347;42.122;24.746;2023-05-23T12:57:08;6.90;;;5.83;;
2674;SDS011;1347;42.122;24.746;2023-05-23T12:59:35;11.70;;;5.60;;
2674;SDS011;1347;42.122;24.746;2023-05-23T13:02:03;5.37;;;4.57;;
2674;SDS011;1347;42.122;24.746;2023-05-23T13:04:31;6.30;;;4.80;;
2674;SDS011;1347;42.122;24.746;2023-05-23T13:06:57;4.80;;;4.40;;
2674;SDS011;1347;42.122;24.746;2023-05-23T13:09:25;8.20;;;5.60;;
2674;SDS011;1347;42.122;24.746;2023-05-23T13:11:51;7.87;;;5.60;;
2674;SDS011;1347;42.122;24.746;2023-05-23T13:14:19;11.50;;;5.70;;
2674;SDS011;1347;42.122;24.746;2023-05-23T13:16:46;5.93;;;5.17;;
2674;SDS011;1347;42.122;24.746;2023-05-23T13:19:14;6.40;;;5.20;;
2674;SDS011;1347;42.122;24.746;2023-05-23T13:21:41;6.60;;;5.90;;
2674;SDS011;1347;42.122;24.746;2023-05-23T13:24:08;7.20;;;6.50;;
2674;SDS011;1347;42.122;24.746;2023-05-23T13:26:35;10.43;;;5.67;;
2674;SDS011;1347;42.122;24.746;2023-05-23T13:29:03;6.40;;;5.80;;
2674;SDS011;1347;42.122;24.746;2023-05-23T13:31:30;8.10;;;5.50;;
2674;SDS011;1347;42.122;24.746;2023-05-23T13:33:57;7.80;;;6.00;;
2674;SDS011;1347;42.122;24.746;2023-05-23T13:36:25;6.60;;;6.00;;
2674;SDS011;1347;42.122;24.746;2023-05-23T13:38:53;6.60;;;6.00;;
2674;SDS011;1347;42.122;24.746;2023-05-23T13:41:20;6.40;;;5.80;;
2674;SDS011;1347;42.122;24.746;2023-05-23T13:43:47;6.80;;;5.30;;
2674;SDS011;1347;42.122;24.746;2023-05-23T13:46:14;8.03;;;6.07;;
2674;SDS011;1347;42.122;24.746;2023-05-23T13:48:41;7.20;;;5.30;;
2674;SDS011;1347;42.122;24.746;2023-05-23T13:51:08;6.17;;;5.00;;
2674;SDS011;1347;42.122;24.746;2023-05-23T13:53:36;6.50;;;5.77;;
2674;SDS011;1347;42.122;24.746;2023-05-23T13:56:03;9.10;;;5.47;;
2674;SDS011;1347;42.122;24.746;2023-05-23T13:58:30;10.13;;;4.90;;
2674;SDS011;1347;42.122;24.746;2023-05-23T14:00:57;6.13;;;4.90;;
2674;SDS011;1347;42.122;24.746;2023-05-23T14:03:23;5.27;;;4.87;;
2674;SDS011;1347;42.122;24.746;2023-05-23T14:05:50;6.17;;;5.57;;
2674;SDS011;1347;42.122;24.746;2023-05-23T14:08:17;7.00;;;5.10;;
2674;SDS011;1347;42.122;24.746;2023-05-23T14:10:45;10.90;;;5.37;;
2674;SDS011;1347;42.122;24.746;2023-05-23T14:13:13;9.30;;;6.20;;
2674;SDS011;1347;42.122;24.746;2023-05-23T14:15:40;7.90;;;5.20;;
2674;SDS011;1347;42.122;24.746;2023-05-23T14:18:07;5.20;;;4.80;;
2674;SDS011;1347;42.122;24.746;2023-05-23T14:20:34;14.27;;;6.17;;
2674;SDS011;1347;42.122;24.746;2023-05-23T14:23:01;6.40;;;5.80;;
2674;SDS011;1347;42.122;24.746;2023-05-23T14:25:28;4.93;;;4.63;;
2674;SDS011;1347;42.122;24.746;2023-05-23T14:27:59;7.77;;;5.87;;
2674;SDS011;1347;42.122;24.746;2023-05-23T14:30:31;7.00;;;6.40;;
2674;SDS011;1347;42.122;24.746;2023-05-23T14:33:00;5.97;;;5.50;;
2674;SDS011;1347;42.122;24.746;2023-05-23T14:35:27;15.33;;;6.27;;
2674;SDS011;1347;42.122;24.746;2023-05-23T14:37:54;9.50;;;5.50;;
2674;SDS011;1347;42.122;24.746;2023-05-23T14:40:21;15.20;;;6.53;;
2674;SDS011;1347;42.122;24.746;2023-05-23T14:42:48;8.80;;;5.77;;
2674;SDS011;1347;42.122;24.746;2023-05-23T14:45:17;7.83;;;5.70;;
2674;SDS011;1347;42.122;24.746;2023-05-23T14:47:43;7.40;;;5.83;;
2674;SDS011;1347;42.122;24.746;2023-05-23T14:50:10;9.03;;;7.60;;
2674;SDS011;1347;42.122;24.746;2023-05-23T14:52:37;8.70;;;5.13;;
2674;SDS011;1347;42.122;24.746;2023-05-23T14:55:05;9.37;;;7.30;;
2674;SDS011;1347;42.122;24.746;2023-05-23T14:57:34;8.53;;;6.07;;
2674;SDS011;1347;42.122;24.746;2023-05-23T15:00:01;7.63;;;5.63;;
2674;SDS011;1347;42.122;24.746;2023-05-23T15:02:31;10.70;;;5.57;;
2674;SDS011;1347;42.122;24.746;2023-05-23T15:04:58;6.93;;;5.80;;
2674;SDS011;1347;42.122;24.746;2023-05-23T15:07:25;9.07;;;4.87;;